Mc Ghee Tyson Airport
KTYS : now visible

Airfield :











YOU CAN JOIN US ON...

 
LOGIN :

Register | Disclaimer

   EN    FR    IT 

 









Legend :    VFR   Marginal VFR   IFR   Intensive IFR   Very Intensive IFR
Visi :
Ceiling :
>= 8 km
>= 3000ft
5 to 8 km
1000 to 3000 ft
1500m to 5 km
500 to 1000 ft
800 to 1500m
200 to 500 ft
< 800m
< 200 ft
Symbols :   Thunderstorms  Fog  Heavy snow  Heavy precipitations  Wind > 20 kt






- Airport Elevation : 981 ft
- IATA code : TYS


KTYS - Mc Ghee Tyson

CURRENT METAR :
  • 221153Z 28008KT 9SM RA BKN040 OVC090 13/07 A3010 RMK AO2 RAB45 SLP187 P0000 60001 70001 T01280067 10144 20122 53020 $

EXPIRED METARs :
  • 221053Z 32006KT 10SM OVC080 12/07 A3004 RMK AO2 RAE49 SLP168 P0001 T01220067 $
  • 220953Z 26009KT 10SM -RA BKN100 14/04 A3004 RMK AO2 RAB44 SLP167 P0000 T01390044

TAF KTYS
Valid from the 22 at 12:00 until the 23 at 12:00 UTC


221126Z 2212/2312 22004KT P6SM BKN040
TEMPO 2215/2216 4SM -RA OVC025
FM221600 25004KT 4SM -RA OVC025
TEMPO 2219/2221 4SM -RA OVC015
FM222100 00000KT 5SM -RA OVC010
FM222200 00000KT 6SM BR VCSH OVC007
PROB30 2222/2224 4SM -RA BR OVC004
FM230000 00000KT P6SM VCSH OVC012
PROB30 2300/2305 2SM -RA BR OVC008
FM230600 VRB03KT 4SM RA BR OVC009



MET'MAP, your aeronautical weather chart ! - Copyright ORBIFLY December 2007 - Disclaimer

ORBIFLY MET'MAP TEAM :

Programming & Development : Alexandra Zaïnal
Concept & Development : Baudouin d'Aumeries
Co-Development & Prog : Marc-Olivier Méhu
Technical & hardware support : Manuel Goepfert

Contact : metmap@orbifly.com




SOURCES & CREDITS :

   NOAA       Earth
Advisory